createdAt,value
2022-11-16T00:02:13.570Z,99985.97
2022-11-16T00:04:40.060Z,99993.69
2022-11-16T00:07:06.638Z,99985.84
2022-11-16T00:09:33.769Z,99988.47
2022-11-16T00:12:03.229Z,99988.34
2022-11-16T00:14:33.272Z,99984.06
2022-11-16T00:17:00.568Z,99987.50
2022-11-16T00:19:27.948Z,99990.03
2022-11-16T00:21:54.718Z,99994.28
2022-11-16T00:24:22.507Z,99987.31
2022-11-16T00:26:50.110Z,99982.09
2022-11-16T00:29:20.051Z,99989.06
2022-11-16T00:31:47.253Z,99990.72
2022-11-16T00:34:14.146Z,99983.78
2022-11-16T00:36:40.552Z,99986.38
2022-11-16T00:39:07.109Z,99987.22
2022-11-16T00:41:33.494Z,99987.22
2022-11-16T00:43:59.916Z,99984.59
2022-11-16T00:46:26.322Z,99982.00
2022-11-16T00:48:52.838Z,99971.56
2022-11-16T00:51:19.218Z,99970.63
2022-11-16T00:53:45.648Z,99977.47
2022-11-16T00:56:12.060Z,99971.44
2022-11-16T00:58:38.521Z,99960.06
2022-11-16T01:01:07.008Z,99970.50
2022-11-16T01:03:36.607Z,99964.44
2022-11-16T01:06:09.274Z,99964.44
2022-11-16T01:08:37.163Z,99961.75
2022-11-16T01:11:23.061Z,99962.56
2022-11-16T01:13:49.436Z,99969.56
2022-11-16T01:16:17.080Z,99964.34
2022-11-16T01:18:47.166Z,99951.31
2022-11-16T01:21:13.637Z,99958.19
2022-11-16T01:23:40.038Z,99955.56
2022-11-16T01:26:06.477Z,99958.06
2022-11-16T01:28:33.476Z,99959.84
2022-11-16T01:31:00.184Z,99953.78
2022-11-16T01:33:26.721Z,99954.63
2022-11-16T01:35:54.385Z,99952.03
2022-11-16T01:38:20.872Z,99945.88
2022-11-16T01:40:47.278Z,99941.59
2022-11-16T01:43:19.643Z,99938.97
2022-11-16T01:45:46.525Z,99950.25
2022-11-16T01:48:17.046Z,99951.94
2022-11-16T01:50:44.554Z,99949.31
2022-11-16T01:53:12.799Z,99948.50
2022-11-16T01:55:42.270Z,99949.31
2022-11-16T01:58:14.510Z,99947.53
2022-11-16T02:00:41.066Z,99944.94
2022-11-16T02:03:07.539Z,99935.31
2022-11-16T02:06:02.947Z,99942.19
2022-11-16T02:09:17.965Z,99936.16
2022-11-16T02:12:08.791Z,99929.16
2022-11-16T02:15:13.848Z,99923.13
2022-11-16T02:18:02.453Z,99924.81
2022-11-16T02:20:35.009Z,99923.03
2022-11-16T02:23:26.836Z,99921.25
2022-11-16T02:26:17.501Z,99925.50
2022-11-16T02:29:01.283Z,99918.63
2022-11-16T02:31:33.572Z,99920.28
2022-11-16T02:34:01.351Z,99922.81
2022-11-16T02:36:27.828Z,99921.94
2022-11-16T02:39:03.437Z,99917.69
2022-11-16T02:41:33.852Z,99919.34
2022-11-16T02:44:08.104Z,99917.69
2022-11-16T02:46:38.090Z,99920.28
2022-11-16T02:49:09.575Z,99924.69
2022-11-16T02:51:37.381Z,99916.03
2022-11-16T02:54:17.351Z,99912.47
2022-11-16T02:57:17.680Z,99913.41
2022-11-16T02:59:52.251Z,99916.84
2022-11-16T03:02:36.360Z,99907.25
2022-11-16T03:05:09.561Z,99916.84
2022-11-16T03:07:45.937Z,99918.50
2022-11-16T03:10:33.381Z,99919.47
2022-11-16T03:13:02.246Z,99917.81
2022-11-16T03:15:29.881Z,99921.25
2022-11-16T03:17:58.590Z,99928.25
2022-11-16T03:20:29.786Z,99927.41
2022-11-16T03:23:03.625Z,99927.41
2022-11-16T03:25:36.548Z,99930.03
2022-11-16T03:28:15.200Z,99931.75
2022-11-16T03:30:52.621Z,99927.63
2022-11-16T03:33:37.288Z,99926.78
2022-11-16T03:36:09.489Z,99920.84
2022-11-16T03:38:39.665Z,99927.03
2022-11-16T03:41:08.750Z,99927.13
2022-11-16T03:43:38.025Z,99923.81
2022-11-16T03:46:05.762Z,99931.84
2022-11-16T03:48:35.776Z,99931.00
2022-11-16T03:51:03.448Z,99937.97
2022-11-16T03:53:30.016Z,99938.94
2022-11-16T03:55:56.482Z,99931.25
2022-11-16T03:58:22.989Z,99929.53
2022-11-16T04:00:49.507Z,99940.81
2022-11-16T04:03:16.108Z,99945.31
2022-11-16T04:06:01.520Z,99941.03
2022-11-16T04:08:46.501Z,99944.69
2022-11-16T04:11:37.852Z,99959.50
2022-11-16T04:14:23.011Z,99946.56
2022-11-16T04:17:07.873Z,99948.56
2022-11-16T04:19:57.784Z,99951.28
2022-11-16T04:22:49.188Z,99949.63
2022-11-16T04:25:27.040Z,99950.66
2022-11-16T04:28:13.330Z,99950.78
2022-11-16T04:31:08.276Z,99951.00
2022-11-16T04:33:53.550Z,99948.50
2022-11-16T04:36:38.913Z,99944.34
2022-11-16T04:39:05.620Z,99947.97
2022-11-16T04:41:51.571Z,99961.13
2022-11-16T04:44:18.969Z,99959.66
2022-11-16T04:47:04.438Z,99952.78
2022-11-16T04:49:30.988Z,99957.38
2022-11-16T04:51:57.500Z,99960.13
2022-11-16T04:54:24.412Z,99952.28
2022-11-16T04:56:50.877Z,99958.44
2022-11-16T04:59:18.298Z,99962.94
2022-11-16T05:02:03.442Z,99963.84
2022-11-16T05:04:29.849Z,99964.09
2022-11-16T05:06:56.325Z,99957.09
2022-11-16T05:09:22.768Z,99965.84
2022-11-16T05:11:49.169Z,99962.53
2022-11-16T05:14:15.595Z,99965.34
2022-11-16T05:16:42.027Z,99969.81
2022-11-16T05:19:27.211Z,99977.75
2022-11-16T05:21:53.659Z,99975.22
2022-11-16T05:24:35.404Z,99982.53
2022-11-16T05:27:11.179Z,99988.56
2022-11-16T05:29:38.042Z,99990.34
2022-11-16T05:32:05.367Z,99981.09
2022-11-16T05:34:32.431Z,99979.50
2022-11-16T05:36:59.542Z,99982.31
2022-11-16T05:39:26.254Z,99996.38
2022-11-16T05:41:53.105Z,99991.28
2022-11-16T05:44:19.833Z,99987.13
2022-11-16T05:46:47.127Z,99990.56
2022-11-16T05:49:14.442Z,99999.38
2022-11-16T05:51:42.340Z,100001.28
2022-11-16T05:54:11.652Z,99998.88
2022-11-16T05:56:38.245Z,100004.09
2022-11-16T05:59:04.711Z,100003.25
2022-11-16T06:01:31.157Z,100009.31
2022-11-16T06:04:01.719Z,100008.66
2022-11-16T06:06:28.978Z,100008.72
2022-11-16T06:08:55.830Z,100001.94
2022-11-16T06:11:22.590Z,100012.59
2022-11-16T06:13:49.511Z,100004.78
2022-11-16T06:16:16.005Z,100003.09
2022-11-16T06:18:44.687Z,100007.59
2022-11-16T06:21:12.257Z,100005.91
2022-11-16T06:23:39.007Z,100006.00
2022-11-16T06:26:06.467Z,100001.00
2022-11-16T06:28:34.251Z,100003.72
2022-11-16T06:31:01.835Z,100004.63
2022-11-16T06:33:32.327Z,99999.56
2022-11-16T06:36:00.126Z,100008.28
2022-11-16T06:38:27.270Z,100006.72
2022-11-16T06:40:56.233Z,100009.41
2022-11-16T06:43:23.388Z,100009.53
2022-11-16T06:45:51.956Z,100018.47
2022-11-16T06:48:19.546Z,100022.00
2022-11-16T06:50:49.213Z,100028.34
2022-11-16T06:53:16.258Z,100031.25
2022-11-16T06:55:42.756Z,100026.25
2022-11-16T06:58:09.423Z,100026.44
2022-11-16T07:00:36.476Z,100034.44
2022-11-16T07:03:03.689Z,100037.22
2022-11-16T07:05:30.876Z,100042.63
2022-11-16T07:07:57.393Z,100034.31
2022-11-16T07:10:24.034Z,100037.94
2022-11-16T07:12:50.512Z,100041.53
2022-11-16T07:15:17.162Z,100043.50
2022-11-16T07:17:43.638Z,100042.88
2022-11-16T07:20:11.994Z,100048.25
2022-11-16T07:22:38.766Z,100045.84
2022-11-16T07:25:05.740Z,100044.28
2022-11-16T07:27:32.128Z,100055.72
2022-11-16T07:29:58.575Z,100066.19
2022-11-16T07:32:24.982Z,100063.78
2022-11-16T07:34:51.463Z,100066.50
2022-11-16T07:37:17.936Z,100072.59
2022-11-16T07:39:45.578Z,100069.28
2022-11-16T07:42:12.317Z,100072.81
2022-11-16T07:44:39.278Z,100075.50
2022-11-16T07:47:06.007Z,100077.16
2022-11-16T07:49:32.544Z,100084.13
2022-11-16T07:51:59.059Z,100084.97
2022-11-16T07:54:25.575Z,100086.72
2022-11-16T07:56:55.109Z,100092.88
2022-11-16T07:59:21.596Z,100100.66
2022-11-16T08:01:48.332Z,100104.94
2022-11-16T08:04:15.467Z,100100.66
2022-11-16T08:06:41.949Z,100107.53
2022-11-16T08:09:09.426Z,100117.91
2022-11-16T08:11:35.930Z,100117.91
2022-11-16T08:14:02.355Z,100120.44
2022-11-16T08:16:29.228Z,100126.47
2022-11-16T08:18:55.865Z,100126.38
2022-11-16T08:21:22.282Z,100128.06
2022-11-16T08:23:51.549Z,100128.88
2022-11-16T08:26:22.071Z,100128.06
2022-11-16T08:28:53.844Z,100135.75
2022-11-16T08:31:24.081Z,100127.88
2022-11-16T08:33:51.817Z,100128.69
2022-11-16T08:36:18.958Z,100126.94
2022-11-16T08:38:47.336Z,100124.97
2022-11-16T08:41:14.366Z,100124.03
2022-11-16T08:43:41.294Z,100123.09
2022-11-16T08:46:09.655Z,100134.25
2022-11-16T08:48:37.078Z,100130.00
2022-11-16T08:51:20.786Z,100136.97
2022-11-16T08:53:49.084Z,100141.88
2022-11-16T08:56:17.413Z,100136.28
2022-11-16T08:58:46.376Z,100143.81
2022-11-16T09:01:15.543Z,100141.00
2022-11-16T09:03:42.403Z,100139.69
2022-11-16T09:06:10.124Z,100141.09
2022-11-16T09:08:38.544Z,100139.75
2022-11-16T09:11:09.821Z,100145.53
2022-11-16T09:13:36.494Z,100149.41
2022-11-16T09:16:04.375Z,100144.00
2022-11-16T09:18:31.532Z,100139.25
2022-11-16T09:20:58.494Z,100148.53
2022-11-16T09:23:25.929Z,100144.59
2022-11-16T09:25:53.036Z,100146.25
2022-11-16T09:28:20.426Z,100153.16
2022-11-16T09:30:50.055Z,100156.28
2022-11-16T09:33:16.775Z,100159.66
2022-11-16T09:35:43.368Z,100153.19
2022-11-16T09:38:10.093Z,100159.78
2022-11-16T09:40:39.307Z,100162.00
2022-11-16T09:43:30.902Z,100159.41
2022-11-16T09:46:06.666Z,100163.16
2022-11-16T09:48:37.967Z,100162.69
2022-11-16T09:51:09.691Z,100159.91
2022-11-16T09:53:46.314Z,100160.75
2022-11-16T09:56:22.366Z,100171.97
2022-11-16T09:59:09.389Z,100169.06
2022-11-16T10:01:44.555Z,100162.53
2022-11-16T10:04:20.593Z,100157.22
2022-11-16T10:07:00.886Z,100161.59
2022-11-16T10:09:27.896Z,100160.53
2022-11-16T10:12:04.596Z,100161.94
2022-11-16T10:15:01.452Z,100160.69
2022-11-16T10:17:27.819Z,100156.63
2022-11-16T10:19:57.031Z,100164.88
2022-11-16T10:22:46.396Z,100155.09
2022-11-16T10:25:15.643Z,100160.09
2022-11-16T10:28:16.239Z,100157.59
2022-11-16T10:30:58.326Z,100158.75
2022-11-16T10:33:26.963Z,100162.06
2022-11-16T10:35:54.178Z,100162.91
2022-11-16T10:38:27.467Z,100150.22
2022-11-16T10:41:14.512Z,100162.00
2022-11-16T10:43:43.261Z,100154.19
2022-11-16T10:46:42.135Z,100154.19
2022-11-16T10:49:30.432Z,100151.25
2022-11-16T10:51:57.805Z,100161.56
2022-11-16T10:54:24.309Z,100165.22
2022-11-16T10:57:04.396Z,100159.59
2022-11-16T10:59:42.991Z,100152.09
2022-11-16T11:02:24.810Z,100172.84
2022-11-16T11:05:05.976Z,100162.09
2022-11-16T11:07:39.660Z,100154.06
2022-11-16T11:10:24.209Z,100155.53
2022-11-16T11:13:26.295Z,100162.81
2022-11-16T11:16:13.760Z,100163.16
2022-11-16T11:18:40.378Z,100159.25
2022-11-16T11:21:18.727Z,100153.41
2022-11-16T11:23:51.879Z,100151.00
2022-11-16T11:26:33.091Z,100151.22
2022-11-16T11:29:22.386Z,100143.41
2022-11-16T11:31:52.721Z,100141.53
2022-11-16T11:34:26.592Z,100136.31
2022-11-16T11:36:58.016Z,100139.03
2022-11-16T11:39:24.458Z,100132.75
2022-11-16T11:42:03.741Z,100129.94
2022-11-16T11:44:42.613Z,100122.03
2022-11-16T11:50:21.462Z,100113.88
2022-11-16T11:53:02.154Z,100116.13
2022-11-16T11:55:29.451Z,100112.59
2022-11-16T11:57:56.693Z,100107.38
2022-11-16T12:00:23.847Z,100113.44
2022-11-16T12:03:26.715Z,100109.91
2022-11-16T12:06:19.341Z,100114.91
2022-11-16T12:09:03.111Z,100116.63
2022-11-16T12:11:45.524Z,100125.16
2022-11-16T12:14:23.281Z,100113.78
2022-11-16T12:17:07.068Z,100117.31
2022-11-16T12:19:59.448Z,100120.78
2022-11-16T12:22:38.072Z,100114.50
2022-11-16T12:25:15.555Z,100121.63
2022-11-16T12:27:53.779Z,100119.00
2022-11-16T12:30:23.344Z,100117.22
2022-11-16T12:33:23.630Z,100111.81
2022-11-16T12:36:07.619Z,100118.34
2022-11-16T12:38:40.338Z,100115.31
2022-11-16T12:41:06.731Z,100106.31
2022-11-16T12:43:38.988Z,100101.00
2022-11-16T12:46:23.586Z,100110.06
2022-11-16T12:49:20.414Z,100101.06
2022-11-16T12:51:55.752Z,100087.00
2022-11-16T12:54:52.476Z,100084.63
2022-11-16T12:57:49.896Z,100074.75
2022-11-16T13:00:19.492Z,100085.59
2022-11-16T13:03:00.091Z,100077.97
2022-11-16T13:05:51.528Z,100077.97
2022-11-16T13:08:23.801Z,100066.31
2022-11-16T13:11:05.334Z,100079.69
2022-11-16T13:13:36.959Z,100077.91
2022-11-16T13:16:06.900Z,100074.34
2022-11-16T13:18:37.604Z,100079.47
2022-11-16T13:21:18.775Z,100071.13
2022-11-16T13:24:04.032Z,100074.69
2022-11-16T13:26:38.713Z,100064.47
2022-11-16T13:29:23.761Z,100061.13
2022-11-16T13:32:14.651Z,100059.81
2022-11-16T13:34:41.564Z,100065.47
2022-11-16T13:37:39.320Z,100068.28
2022-11-16T13:40:12.137Z,100076.31
2022-11-16T13:43:09.439Z,100068.84
2022-11-16T13:45:44.168Z,100074.28
2022-11-16T13:48:21.066Z,100067.56
2022-11-16T13:50:51.415Z,100069.47
2022-11-16T13:56:28.938Z,100054.03
2022-11-16T13:58:56.066Z,100057.59
2022-11-16T14:01:23.854Z,100050.69
2022-11-16T14:03:52.499Z,100046.44
2022-11-16T14:06:18.884Z,100049.78
2022-11-16T14:08:46.761Z,100041.84
2022-11-16T14:11:30.356Z,100040.88
2022-11-16T14:13:58.539Z,100044.34
2022-11-16T14:16:24.951Z,100039.84
2022-11-16T14:19:02.881Z,100033.81
2022-11-16T14:21:39.693Z,100030.69
2022-11-16T14:24:29.019Z,100027.56
2022-11-16T14:27:27.766Z,100029.56
2022-11-16T14:30:05.675Z,100024.78
2022-11-16T14:32:43.411Z,100025.00
2022-11-16T14:35:26.084Z,100029.59
2022-11-16T14:38:01.927Z,100029.78
2022-11-16T14:40:29.064Z,100027.41
2022-11-16T14:43:23.060Z,100021.56
2022-11-16T14:46:13.587Z,100017.91
2022-11-16T14:48:45.974Z,100018.41
2022-11-16T14:51:22.538Z,100013.94
2022-11-16T14:53:52.273Z,100006.25
2022-11-16T14:56:19.532Z,100005.72
2022-11-16T14:58:57.998Z,100006.13
2022-11-16T15:01:31.495Z,99996.88
2022-11-16T15:04:07.502Z,99995.53
2022-11-16T15:06:43.452Z,99993.13
2022-11-16T15:09:17.727Z,99990.03
2022-11-16T15:12:07.069Z,99989.41
2022-11-16T15:14:39.857Z,99995.75
2022-11-16T15:17:07.360Z,99990.75
2022-11-16T15:19:33.872Z,99988.38
2022-11-16T15:22:02.184Z,99979.19
2022-11-16T15:24:32.157Z,99980.34
2022-11-16T15:27:36.543Z,99973.69
2022-11-16T15:30:14.475Z,99963.47
2022-11-16T15:32:45.794Z,99966.38
2022-11-16T15:35:36.183Z,99958.88
2022-11-16T15:38:21.599Z,99965.25
2022-11-16T15:40:54.204Z,99962.91
2022-11-16T15:43:24.376Z,99964.06
2022-11-16T15:48:25.404Z,99949.91
2022-11-16T15:51:05.065Z,99948.41
2022-11-16T15:53:46.910Z,99933.13
2022-11-16T15:56:15.450Z,99930.72
2022-11-16T15:58:42.761Z,99932.69
2022-11-16T16:01:11.727Z,99924.19
2022-11-16T16:03:38.960Z,99920.94
2022-11-16T16:06:06.116Z,99922.91
2022-11-16T16:08:38.034Z,99925.00
2022-11-16T16:11:24.006Z,99900.94
2022-11-16T16:13:57.659Z,99895.13
2022-11-16T16:16:26.935Z,99913.63
2022-11-16T16:18:56.376Z,99926.81
2022-11-16T16:21:22.947Z,99925.28
2022-11-16T16:23:53.759Z,99921.09
2022-11-16T16:26:21.679Z,99922.03
2022-11-16T16:28:49.415Z,99913.50
2022-11-16T16:31:17.549Z,99914.44
2022-11-16T16:33:44.118Z,99905.06
2022-11-16T16:36:13.746Z,99906.91
2022-11-16T16:38:40.229Z,99895.81
2022-11-16T16:41:07.138Z,99890.59
2022-11-16T16:43:34.328Z,99895.81
2022-11-16T16:46:02.615Z,99895.06
2022-11-16T16:48:29.382Z,99899.44
2022-11-16T16:50:55.958Z,99892.66
2022-11-16T16:53:22.409Z,99894.31
2022-11-16T16:55:48.990Z,99901.41
2022-11-16T16:58:16.499Z,99891.09
2022-11-16T17:00:43.307Z,99889.53
2022-11-16T17:03:09.848Z,99887.03
2022-11-16T17:05:36.410Z,99884.53
2022-11-16T17:08:03.318Z,99875.06
2022-11-16T17:10:29.792Z,99865.59
2022-11-16T17:12:57.298Z,99873.50
2022-11-16T17:15:24.470Z,99871.94
2022-11-16T17:17:50.987Z,99873.72
2022-11-16T17:20:17.615Z,99872.03
2022-11-16T17:22:44.178Z,99860.72
2022-11-16T17:25:10.861Z,99866.75
2022-11-16T17:27:37.451Z,99865.91
2022-11-16T17:30:04.569Z,99869.72
2022-11-16T17:32:31.065Z,99873.28
2022-11-16T17:34:57.528Z,99856.94
2022-11-16T17:37:24.074Z,99875.44
2022-11-16T17:39:50.487Z,99872.19
2022-11-16T17:42:17.073Z,99869.69
2022-11-16T17:44:43.574Z,99869.78
2022-11-16T17:47:10.030Z,99866.44
2022-11-16T17:49:36.502Z,99856.25
2022-11-16T17:52:04.508Z,99855.44
2022-11-16T17:54:30.986Z,99847.75
2022-11-16T17:56:57.544Z,99850.53
2022-11-16T17:59:29.201Z,99848.13
2022-11-16T18:01:58.009Z,99850.94
2022-11-16T18:04:24.793Z,99843.97
2022-11-16T18:06:51.424Z,99852.69
2022-11-16T18:09:18.749Z,99838.00
2022-11-16T18:11:45.468Z,99849.28
2022-11-16T18:14:12.027Z,99836.91
2022-11-16T18:16:41.117Z,99841.81
2022-11-16T18:19:07.683Z,99836.41
2022-11-16T18:21:41.534Z,99835.38
2022-11-16T18:24:09.165Z,99830.72
2022-11-16T18:26:35.915Z,99837.59
2022-11-16T18:29:02.576Z,99840.06
2022-11-16T18:31:29.834Z,99838.22
2022-11-16T18:33:58.135Z,99832.91
2022-11-16T18:36:24.723Z,99840.50
2022-11-16T18:38:51.308Z,99841.34
2022-11-16T18:41:23.890Z,99836.97
2022-11-16T18:44:06.290Z,99831.69
2022-11-16T18:46:33.015Z,99820.56
2022-11-16T18:48:59.635Z,99818.91
2022-11-16T18:51:27.692Z,99821.69
2022-11-16T18:53:55.300Z,99812.25
2022-11-16T18:56:22.373Z,99809.72
2022-11-16T18:58:50.968Z,99809.66
2022-11-16T19:01:20.578Z,99806.22
2022-11-16T19:03:47.242Z,99802.88
2022-11-16T19:06:15.627Z,99801.22
2022-11-16T19:08:42.501Z,99794.25
2022-11-16T19:11:11.583Z,99792.47
2022-11-16T19:13:39.946Z,99794.13
2022-11-16T19:16:07.721Z,99784.69
2022-11-16T19:18:35.566Z,99782.91
2022-11-16T19:21:10.208Z,99769.91
2022-11-16T19:23:42.818Z,99755.28
2022-11-16T19:26:10.177Z,99747.28
2022-11-16T19:28:37.812Z,99744.69
2022-11-16T19:31:16.237Z,99738.66
2022-11-16T19:33:44.329Z,99728.03
2022-11-16T19:36:20.894Z,99730.63
2022-11-16T19:38:48.460Z,99723.56
2022-11-16T19:41:16.378Z,99714.84
2022-11-16T19:43:43.328Z,99716.53
2022-11-16T19:46:17.624Z,99706.84
2022-11-16T19:48:45.909Z,99704.97
2022-11-16T19:51:18.834Z,99703.09
2022-11-16T19:53:45.844Z,99705.59
2022-11-16T19:56:15.222Z,99688.22
2022-11-16T19:58:42.661Z,99681.25
2022-11-16T20:01:21.054Z,99676.88
2022-11-16T20:03:48.762Z,99678.47
2022-11-16T20:06:18.271Z,99673.25
2022-11-16T20:09:02.844Z,99668.06
2022-11-16T20:11:35.893Z,99653.41
2022-11-16T20:14:04.960Z,99651.53
2022-11-16T20:16:38.450Z,99646.31
2022-11-16T20:19:09.991Z,99644.66
2022-11-16T20:21:41.689Z,99637.81
2022-11-16T20:24:11.805Z,99636.03
2022-11-16T20:26:42.914Z,99642.81
2022-11-16T20:29:11.862Z,99637.59
2022-11-16T20:31:42.374Z,99640.09
2022-11-16T20:34:13.942Z,99633.13
2022-11-16T20:36:45.690Z,99628.78
2022-11-16T20:39:22.408Z,99627.00
2022-11-16T20:41:49.455Z,99622.41
2022-11-16T20:44:23.745Z,99622.41
2022-11-16T20:46:52.875Z,99603.41
2022-11-16T20:49:19.380Z,99606.81
2022-11-16T20:51:47.947Z,99603.28
2022-11-16T20:54:14.512Z,99590.16
2022-11-16T20:56:41.233Z,99588.50
2022-11-16T20:59:07.739Z,99576.47
2022-11-16T21:01:34.683Z,99586.03
2022-11-16T21:04:03.757Z,99588.63
2022-11-16T21:06:31.481Z,99586.63
2022-11-16T21:08:58.321Z,99583.09
2022-11-16T21:11:28.059Z,99576.13
2022-11-16T21:14:13.320Z,99566.66
2022-11-16T21:16:40.249Z,99548.47
2022-11-16T21:19:06.976Z,99548.47
2022-11-16T21:21:34.004Z,99539.84
2022-11-16T21:24:00.617Z,99531.84
2022-11-16T21:26:29.280Z,99524.84
2022-11-16T21:28:56.711Z,99531.84
2022-11-16T21:31:25.963Z,99516.22
2022-11-16T21:33:53.620Z,99509.34
2022-11-16T21:36:23.629Z,99507.59
2022-11-16T21:38:51.081Z,99505.84
2022-11-16T21:41:19.872Z,99497.09
2022-11-16T21:43:46.778Z,99493.66
2022-11-16T21:46:14.258Z,99484.09
2022-11-16T21:48:40.733Z,99476.28
2022-11-16T21:51:08.760Z,99470.25
2022-11-16T21:53:36.198Z,99461.50
2022-11-16T21:56:03.825Z,99459.75
2022-11-16T21:58:30.506Z,99451.94
2022-11-16T22:00:58.670Z,99448.53
2022-11-16T22:03:26.591Z,99446.88
2022-11-16T22:06:12.385Z,99436.47
2022-11-16T22:08:39.815Z,99433.88
2022-11-16T22:11:07.723Z,99431.28
2022-11-16T22:13:35.401Z,99419.09
2022-11-16T22:16:13.413Z,99420.75
2022-11-16T22:18:39.895Z,99409.44
2022-11-16T22:21:07.226Z,99398.16
2022-11-16T22:23:34.324Z,99398.16
2022-11-16T22:26:02.121Z,99397.94
2022-11-16T22:28:28.683Z,99376.31
2022-11-16T22:31:01.095Z,99376.31
2022-11-16T22:33:27.902Z,99370.19
2022-11-16T22:35:54.542Z,99357.06
2022-11-16T22:38:21.116Z,99348.44
2022-11-16T22:40:55.799Z,99344.22
2022-11-16T22:43:28.211Z,99328.47
2022-11-16T22:46:02.931Z,99326.69
2022-11-16T22:48:31.294Z,99307.69
2022-11-16T22:51:06.867Z,99318.09
2022-11-16T22:53:34.721Z,99313.69
2022-11-16T22:56:06.619Z,99300.59
2022-11-16T22:58:33.417Z,99298.94
2022-11-16T23:00:59.944Z,99286.75
2022-11-16T23:03:26.435Z,99276.34
2022-11-16T23:05:52.956Z,99267.03
2022-11-16T23:08:24.698Z,99267.03
2022-11-16T23:11:26.825Z,99263.72
2022-11-16T23:14:12.810Z,99251.66
2022-11-16T23:16:39.984Z,99243.03
2022-11-16T23:19:27.615Z,99238.78
2022-11-16T23:22:13.391Z,99228.38
2022-11-16T23:24:58.708Z,99234.53
2022-11-16T23:27:33.765Z,99218.78
2022-11-16T23:30:04.519Z,99223.31
2022-11-16T23:32:34.596Z,99214.69
2022-11-16T23:35:01.079Z,99215.50
2022-11-16T23:37:27.565Z,99205.09
2022-11-16T23:39:53.993Z,99192.22
2022-11-16T23:42:38.899Z,99183.59
2022-11-16T23:45:05.663Z,99175.78
2022-11-16T23:47:32.096Z,99161.16
2022-11-16T23:49:58.512Z,99147.19
2022-11-16T23:52:24.976Z,99132.56
2022-11-16T23:54:51.410Z,99127.34
2022-11-16T23:57:17.868Z,99104.91
2022-11-16T23:59:44.284Z,99095.44
